Time;durP1;ratioP1;P1;durP2;ratioP2;P2;SDS_P1;SDS_P2;PMS_P1;PMS_P2;Temp;Humidity;BMP_temperature;BMP_pressure;BME280_temperature;BME280_humidity;BME280_pressure;Samples;Min_cycle;Max_cycle;Signal;HPM_P1;HPM_P2
2023/01/27 00:00:22;;;;;;;2.63;2.43;;;;;;;18.86;43.28;97520.03;4959159;28;20230;-86
2023/01/27 00:02:49;;;;;;;2.63;2.43;;;;;;;19.13;43.22;97572.06;4981254;28;20226;-86
2023/01/27 00:05:16;;;;;;;2.90;2.70;;;;;;;18.90;43.16;97533.78;4978091;28;20216;-86
2023/01/27 00:07:45;;;;;;;2.87;2.67;;;;;;;18.88;43.16;97528.63;4959458;28;20279;-87
2023/01/27 00:10:16;;;;;;;2.70;2.50;;;;;;;18.80;43.09;97514.72;4944872;28;20204;-86
2023/01/27 00:15:29;;;;;;;2.60;2.40;;;;;;;18.20;43.21;97418.06;4960867;28;20239;-86
2023/01/27 00:17:56;;;;;;;2.70;2.50;;;;;;;19.04;43.38;97551.31;4951119;28;20287;-87
2023/01/27 00:26:06;;;;;;;2.60;2.40;;;;;;;18.94;43.38;97530.53;4979655;28;20258;-86
2023/01/27 00:28:33;;;;;;;3.00;2.70;;;;;;;19.04;43.25;97553.03;4975046;28;20211;-87
2023/01/27 00:31:00;;;;;;;2.80;2.57;;;;;;;18.89;43.25;97517.63;4954301;28;20199;-86
2023/01/27 00:33:27;;;;;;;2.80;2.60;;;;;;;18.54;43.58;97463.59;4986966;28;20745;-87
2023/01/27 00:36:04;;;;;;;2.63;2.43;;;;;;;18.88;43.21;97508.25;4991106;28;20578;-86
2023/01/27 00:38:33;;;;;;;2.77;2.57;;;;;;;19.10;43.20;97543.94;4945466;28;20196;-86
2023/01/27 00:41:18;;;;;;;2.83;2.63;;;;;;;19.07;43.33;97531.06;4974526;28;20295;-86
2023/01/27 00:43:45;;;;;;;2.77;2.57;;;;;;;18.97;43.48;97520.47;4980077;28;20219;-87
2023/01/27 00:46:12;;;;;;;2.90;2.60;;;;;;;18.96;43.26;97522.16;4976470;28;20214;-86
2023/01/27 00:48:39;;;;;;;2.57;2.30;;;;;;;18.80;43.58;97496.88;4961426;28;20208;-86
2023/01/27 00:51:05;;;;;;;2.77;2.57;;;;;;;18.79;43.27;97499.38;4957998;28;20227;-86
2023/01/27 00:53:32;;;;;;;2.50;2.30;;;;;;;19.01;43.07;97535.94;4960631;28;20247;-86
2023/01/27 00:55:58;;;;;;;3.03;2.73;;;;;;;19.09;43.47;97554.94;4976373;28;20199;-86
2023/01/27 00:58:26;;;;;;;2.77;2.50;;;;;;;18.68;43.25;97485.38;4977507;28;20254;-86
2023/01/27 01:00:53;;;;;;;2.50;2.30;;;;;;;18.65;43.17;97475.06;4964668;28;20199;-86
2023/01/27 01:03:20;;;;;;;3.07;2.77;;;;;;;18.68;43.26;97477.75;4993643;28;20226;-85
2023/01/27 01:05:48;;;;;;;2.77;2.57;;;;;;;19.12;43.38;97560.16;4973956;28;20247;-87
2023/01/27 01:08:14;;;;;;;2.90;2.60;;;;;;;19.08;43.64;97553.22;4976247;28;20282;-86
2023/01/27 01:10:41;;;;;;;2.40;2.20;;;;;;;18.88;42.67;97522.66;4981966;28;20199;-86
2023/01/27 01:13:10;;;;;;;3.10;2.80;;;;;;;18.90;43.52;97518.50;4989406;28;20306;-86
2023/01/27 01:15:37;;;;;;;3.10;2.80;;;;;;;18.80;43.41;97508.78;4970432;28;20201;-86
2023/01/27 01:18:04;;;;;;;2.70;2.50;;;;;;;18.85;43.20;97514.88;4944143;28;20207;-86
2023/01/27 01:20:34;;;;;;;2.80;2.60;;;;;;;19.13;43.55;97561.03;4975213;28;20203;-86
2023/01/27 01:23:00;;;;;;;3.00;2.70;;;;;;;18.95;43.14;97530.59;4959982;28;20255;-86
2023/01/27 01:25:27;;;;;;;3.30;2.90;;;;;;;18.95;43.46;97538.22;4968142;28;20219;-86
2023/01/27 01:27:53;;;;;;;2.80;2.60;;;;;;;18.97;43.57;97546.81;4976136;28;20223;-86
2023/01/27 01:30:20;;;;;;;2.57;2.37;;;;;;;18.39;43.50;97440.06;4959641;28;20203;-86
2023/01/27 01:32:47;;;;;;;3.10;2.90;;;;;;;18.86;43.31;97532.78;4971655;28;20227;-86
2023/01/27 01:35:13;;;;;;;2.50;2.30;;;;;;;19.13;43.42;97576.31;4991797;28;20647;-86
2023/01/27 01:37:40;;;;;;;3.00;2.70;;;;;;;18.81;43.75;97515.59;4961999;28;20207;-86
2023/01/27 01:40:07;;;;;;;3.20;2.90;;;;;;;18.80;43.54;97511.31;4956419;29;20208;-87
2023/01/27 01:42:52;;;;;;;2.87;2.57;;;;;;;19.13;43.48;97571.22;4959636;28;20226;-87
2023/01/27 01:45:31;;;;;;;3.10;2.80;;;;;;;19.12;43.34;97572.88;4972659;28;20242;-86
2023/01/27 01:48:36;;;;;;;3.67;3.07;;;;;;;19.02;43.34;97560.59;4975304;28;20227;-87
2023/01/27 01:51:12;;;;;;;3.17;2.83;;;;;;;18.79;43.49;97520.63;4946076;28;20620;-86
2023/01/27 01:54:00;;;;;;;3.20;2.90;;;;;;;19.11;43.53;97575.38;4959221;28;20662;-86
2023/01/27 01:56:33;;;;;;;2.93;2.73;;;;;;;18.88;43.43;97532.84;4969438;28;20231;-87
2023/01/27 01:59:02;;;;;;;3.20;2.90;;;;;;;18.60;43.49;97485.06;4975450;28;20223;-86
2023/01/27 02:01:29;;;;;;;2.90;2.70;;;;;;;19.11;43.46;97562.63;4958985;28;20393;-86
2023/01/27 02:03:57;;;;;;;3.30;3.00;;;;;;;18.95;43.41;97538.22;4975026;28;20219;-86
2023/01/27 02:06:23;;;;;;;3.30;3.00;;;;;;;18.68;43.14;97488.75;4974859;28;20215;-86
2023/01/27 02:08:50;;;;;;;2.80;2.60;;;;;;;18.95;43.53;97542.47;4958708;28;20287;-86
2023/01/27 02:11:17;;;;;;;3.23;2.97;;;;;;;18.85;43.52;97517.44;4963868;28;20199;-86
2023/01/27 02:13:43;;;;;;;2.90;2.70;;;;;;;18.65;43.42;97481.00;4974507;28;20239;-87
2023/01/27 02:16:10;;;;;;;3.07;2.70;;;;;;;19.11;43.63;97567.72;4961649;28;20667;-86
2023/01/27 02:18:40;;;;;;;3.30;2.90;;;;;;;18.81;43.56;97508.84;4955438;28;20706;-86
2023/01/27 02:21:06;;;;;;;3.10;2.67;;;;;;;18.81;43.70;97539.38;4968915;28;20206;-87
2023/01/27 02:23:49;;;;;;;3.07;2.77;;;;;;;19.11;43.65;97566.06;4974632;28;20274;-86
2023/01/27 02:26:29;;;;;;;2.87;2.67;;;;;;;18.50;43.54;97466.81;4975892;28;20597;-87
2023/01/27 02:29:02;;;;;;;2.83;2.63;;;;;;;19.12;43.56;97564.34;4975892;28;20224;-86
2023/01/27 02:31:28;;;;;;;3.00;2.70;;;;;;;18.82;43.60;97509.69;4980584;28;20238;-86
2023/01/27 02:34:00;;;;;;;2.93;2.63;;;;;;;18.78;43.58;97507.81;4973858;28;20231;-86
2023/01/27 02:36:27;;;;;;;2.90;2.60;;;;;;;18.65;43.39;97475.91;4958745;28;20298;-86
2023/01/27 02:38:54;;;;;;;3.67;3.23;;;;;;;19.12;43.56;97559.28;4974463;28;20223;-87
2023/01/27 02:41:21;;;;;;;3.20;2.90;;;;;;;19.10;43.35;97559.22;4974387;28;20208;-86
2023/01/27 02:43:47;;;;;;;3.13;2.83;;;;;;;18.64;43.48;97475.84;4975394;28;20225;-86
2023/01/27 02:46:14;;;;;;;3.40;3.10;;;;;;;18.87;43.47;97520.94;4958057;28;20251;-87
2023/01/27 02:48:41;;;;;;;2.90;2.60;;;;;;;18.82;43.31;97500.38;4955369;28;20255;-87
2023/01/27 02:51:08;;;;;;;3.00;2.73;;;;;;;18.85;43.55;97509.78;4989426;28;20196;-86
2023/01/27 02:53:34;;;;;;;3.67;3.20;;;;;;;18.93;43.38;97531.34;4974004;28;20219;-86
2023/01/27 02:56:01;;;;;;;3.10;2.80;;;;;;;18.93;43.34;97519.50;4958811;28;20207;-86
2023/01/27 02:58:28;;;;;;;3.20;2.90;;;;;;;19.02;43.76;97532.59;4957748;28;20656;-85
2023/01/27 03:00:54;;;;;;;3.93;3.53;;;;;;;18.93;43.66;97516.94;4973964;28;20204;-86
2023/01/27 03:03:21;;;;;;;2.93;2.73;;;;;;;18.73;43.19;97478.75;4974717;28;20254;-86
2023/01/27 03:05:49;;;;;;;3.40;3.10;;;;;;;18.34;43.28;97411.00;4973479;28;20303;-86
2023/01/27 03:08:17;;;;;;;3.37;3.07;;;;;;;18.93;43.58;97513.53;4975452;28;20208;-86
2023/01/27 03:10:44;;;;;;;3.00;2.77;;;;;;;18.92;43.53;97512.66;4957543;28;20211;-86
2023/01/27 03:13:10;;;;;;;3.40;3.10;;;;;;;18.85;43.94;97497.06;4974675;28;20247;-86
2023/01/27 03:18:22;;;;;;;3.10;2.80;;;;;;;18.97;43.64;97518.81;4969476;28;20208;-87
2023/01/27 03:20:49;;;;;;;3.43;3.13;;;;;;;18.95;43.59;97510.22;4973616;28;20196;-86
2023/01/27 03:23:17;;;;;;;3.40;3.00;;;;;;;18.95;43.78;97505.13;4952021;28;20248;-87
2023/01/27 03:25:46;;;;;;;3.47;3.17;;;;;;;19.07;43.50;97537.88;4988950;28;20219;-86
2023/01/27 03:28:12;;;;;;;3.40;3.10;;;;;;;18.74;43.84;97476.28;4973523;28;20218;-87
2023/01/27 03:30:39;;;;;;;3.30;3.00;;;;;;;19.01;43.66;97523.19;4975295;28;20761;-87
2023/01/27 03:33:06;;;;;;;3.03;2.73;;;;;;;18.81;43.49;97496.09;4941544;28;20223;-87
2023/01/27 03:35:37;;;;;;;3.47;3.13;;;;;;;18.93;43.85;97519.50;4962498;28;20674;-86
2023/01/27 03:46:21;;;;;;;3.83;3.47;;;;;;;18.64;43.57;97460.59;4973274;28;20211;-87
2023/01/27 03:48:52;;;;;;;3.83;3.30;;;;;;;18.51;43.56;97448.19;4955761;28;20754;-87
2023/01/27 03:51:21;;;;;;;3.73;3.43;;;;;;;18.75;43.58;97482.25;4956991;28;20202;-86
2023/01/27 03:53:47;;;;;;;3.77;3.47;;;;;;;18.96;43.45;97523.84;4972944;28;20327;-86
2023/01/27 03:56:14;;;;;;;3.50;3.20;;;;;;;18.65;43.58;97475.06;4957250;28;20665;-86
2023/01/27 03:58:41;;;;;;;3.23;2.93;;;;;;;18.78;43.50;97500.19;4956389;28;20207;-86
2023/01/27 04:01:12;;;;;;;4.00;3.60;;;;;;;19.08;43.58;97553.22;4972443;28;20203;-86
2023/01/27 04:09:11;;;;;;;3.03;2.73;;;;;;;19.07;43.76;97548.06;4982858;28;20274;-86
2023/01/27 04:14:27;;;;;;;3.50;3.20;;;;;;;19.10;43.33;97545.63;4968594;28;20242;-86
2023/01/27 04:17:14;;;;;;;3.50;3.20;;;;;;;18.52;43.52;97440.63;4963726;28;20196;-86
2023/01/27 04:19:41;;;;;;;4.07;3.67;;;;;;;18.56;43.58;97454.34;4970923;28;20262;-86
2023/01/27 04:22:09;;;;;;;4.10;3.70;;;;;;;19.09;43.70;97541.31;4961222;28;20220;-86
2023/01/27 04:24:35;;;;;;;3.90;3.20;;;;;;;18.91;43.48;97516.00;4941580;28;20236;-86
2023/01/27 04:27:12;;;;;;;3.40;3.10;;;;;;;19.02;43.61;97534.25;4976021;28;20223;-86
2023/01/27 04:29:40;;;;;;;3.30;3.00;;;;;;;18.85;43.68;97500.50;4945746;28;20239;-86
2023/01/27 04:32:08;;;;;;;3.40;3.10;;;;;;;18.84;43.42;97498.75;4958387;28;20230;-86
2023/01/27 04:34:34;;;;;;;3.60;3.30;;;;;;;18.80;43.27;97486.69;4948008;28;20199;-86
2023/01/27 04:37:05;;;;;;;3.50;3.20;;;;;;;18.85;43.58;97495.41;4977618;28;20203;-86
2023/01/27 04:39:32;;;;;;;4.17;3.37;;;;;;;18.77;43.96;97485.75;4979704;28;20245;-86
2023/01/27 04:41:58;;;;;;;3.60;3.30;;;;;;;18.85;43.42;97502.16;4976615;28;20209;-86
2023/01/27 04:44:25;;;;;;;3.93;3.53;;;;;;;18.83;43.73;97491.91;4964744;28;20215;-86
2023/01/27 04:46:53;;;;;;;3.53;3.00;;;;;;;19.09;43.74;97539.66;4977605;28;20224;-86
2023/01/27 04:49:20;;;;;;;3.93;3.30;;;;;;;18.80;43.66;97494.34;4978044;28;20275;-86
2023/01/27 04:51:46;;;;;;;4.10;3.73;;;;;;;18.79;43.31;97473.91;4947794;28;20207;-86
2023/01/27 04:54:13;;;;;;;3.77;3.37;;;;;;;18.69;43.39;97467.63;4994062;28;20219;-87
2023/01/27 04:56:43;;;;;;;3.40;3.10;;;;;;;18.86;43.47;97499.69;4966220;28;20202;-86
2023/01/27 04:59:10;;;;;;;3.27;2.97;;;;;;;18.87;43.53;97498.00;4950630;29;20200;-86
2023/01/27 05:01:37;;;;;;;4.00;3.60;;;;;;;18.93;43.34;97516.06;4954498;28;20263;-86
2023/01/27 05:04:04;;;;;;;4.03;3.60;;;;;;;18.95;43.50;97515.31;4960096;28;20251;-86
2023/01/27 05:06:30;;;;;;;3.90;3.20;;;;;;;18.50;43.51;97449.84;4959825;28;20219;-86
2023/01/27 05:08:57;;;;;;;4.37;3.30;;;;;;;18.93;43.37;97516.06;4958982;28;20203;-87
2023/01/27 05:11:24;;;;;;;3.90;3.37;;;;;;;18.99;43.16;97532.47;4973662;28;20291;-86
2023/01/27 05:13:50;;;;;;;3.63;3.17;;;;;;;18.87;43.22;97501.44;4953210;28;20228;-86
2023/01/27 05:16:21;;;;;;;3.97;3.47;;;;;;;18.81;43.44;97496.09;4974868;28;20200;-87
2023/01/27 05:18:49;;;;;;;3.80;3.50;;;;;;;18.88;43.10;97507.38;4982862;28;20286;-86
2023/01/27 05:21:17;;;;;;;3.70;3.30;;;;;;;18.83;43.31;97504.66;4972052;28;20204;-87
2023/01/27 05:23:44;;;;;;;4.33;3.90;;;;;;;18.75;43.12;97493.31;4958737;28;20224;-87
2023/01/27 05:26:12;;;;;;;4.80;3.53;;;;;;;18.85;43.30;97513.22;4975042;28;20215;-87
2023/01/27 05:28:40;;;;;;;4.20;3.80;;;;;;;18.86;43.29;97527.69;4971119;28;20717;-87
2023/01/27 05:31:12;;;;;;;3.90;3.50;;;;;;;19.12;43.23;97577.09;4974657;28;20200;-87
2023/01/27 05:33:39;;;;;;;5.17;3.80;;;;;;;18.77;43.56;97506.94;4971841;28;20236;-87
2023/01/27 05:36:06;;;;;;;4.13;3.70;;;;;;;18.87;43.79;97529.44;4973427;28;20211;-87
2023/01/27 05:38:33;;;;;;;5.27;4.20;;;;;;;18.95;43.42;97538.22;4957054;28;20670;-87
2023/01/27 05:41:02;;;;;;;5.43;3.87;;;;;;;18.85;43.44;97527.63;4959974;28;20208;-86
2023/01/27 05:43:30;;;;;;;5.13;4.03;;;;;;;18.87;43.54;97534.53;4971063;28;20216;-86
2023/01/27 05:46:02;;;;;;;7.80;4.13;;;;;;;18.70;43.54;97504.97;4958218;28;20307;-86
2023/01/27 05:48:28;;;;;;;6.37;4.43;;;;;;;18.81;43.57;97536.84;4991571;28;20204;-86
2023/01/27 05:50:56;;;;;;;7.23;4.13;;;;;;;18.92;43.66;97552.53;4978994;28;20583;-86
2023/01/27 05:53:23;;;;;;;6.83;4.43;;;;;;;18.87;43.69;97546.38;4959837;28;20228;-86
2023/01/27 05:55:50;;;;;;;5.57;4.30;;;;;;;18.87;43.53;97544.72;4946195;28;20294;-86
2023/01/27 05:58:17;;;;;;;9.47;7.10;;;;;;;18.77;42.20;97534.09;4978910;28;20215;-86
2023/01/27 06:00:44;;;;;;;12.83;8.10;;;;;;;18.95;40.45;97561.16;4941930;28;20199;-86
2023/01/27 06:03:11;;;;;;;12.97;9.40;;;;;;;19.01;39.79;97580.91;4959783;28;20220;-87
2023/01/27 06:05:37;;;;;;;12.80;8.50;;;;;;;18.93;40.45;97564.47;4962442;28;20204;-86
2023/01/27 06:08:04;;;;;;;8.90;7.03;;;;;;;18.85;41.16;97564.16;4979351;28;20214;-87
2023/01/27 06:10:30;;;;;;;8.33;6.37;;;;;;;18.78;41.99;97556.19;4957309;28;20219;-87
2023/01/27 06:12:59;;;;;;;8.43;6.23;;;;;;;18.71;42.10;97544.88;4965955;28;20306;-87
2023/01/27 06:15:26;;;;;;;8.37;6.40;;;;;;;18.52;42.35;97503.38;4971781;28;20202;-85
2023/01/27 06:17:52;;;;;;;6.43;5.43;;;;;;;18.92;42.29;97575.47;4957669;28;20232;-86
2023/01/27 06:20:19;;;;;;;9.57;6.20;;;;;;;18.82;43.23;97565.69;4978887;28;20200;-86
2023/01/27 06:22:45;;;;;;;9.27;6.10;;;;;;;19.02;42.94;97593.72;4966096;28;20286;-85
2023/01/27 06:25:12;;;;;;;7.63;5.67;;;;;;;18.86;43.26;97565.88;4978844;28;20242;-85
2023/01/27 06:27:39;;;;;;;9.07;6.07;;;;;;;18.88;42.99;97581.22;4961412;28;20363;-88
2023/01/27 06:30:06;;;;;;;9.00;5.90;;;;;;;18.89;43.23;97577.88;4964923;28;20208;-88
2023/01/27 06:32:36;;;;;;;8.37;5.20;;;;;;;18.96;43.26;97578.19;4956173;28;20232;-88
2023/01/27 06:35:03;;;;;;;6.20;4.87;;;;;;;18.70;43.13;97524.47;4959370;28;20271;-89
2023/01/27 06:37:30;;;;;;;9.10;5.63;;;;;;;18.65;43.24;97515.78;4992217;28;20199;-90
2023/01/27 06:39:56;;;;;;;10.53;5.80;;;;;;;18.41;43.10;97481.72;4979806;28;20230;-85
2023/01/27 06:42:23;;;;;;;7.07;5.40;;;;;;;19.03;43.05;97592.91;4976666;28;20581;-86
2023/01/27 06:44:49;;;;;;;9.83;7.60;;;;;;;18.86;42.33;97567.56;4961211;28;20212;-85
2023/01/27 06:47:16;;;;;;;18.67;11.07;;;;;;;18.68;39.69;97539.69;4957165;28;20223;-85
2023/01/27 06:49:42;;;;;;;16.23;11.23;;;;;;;18.94;38.69;97589.09;4963887;28;20203;-86
2023/01/27 06:52:09;;;;;;;14.07;10.60;;;;;;;18.95;38.79;97607.00;4957441;28;20210;-85
2023/01/27 06:54:35;;;;;;;14.10;9.13;;;;;;;18.91;39.52;97611.91;4936067;28;20618;-85
2023/01/27 06:57:02;;;;;;;14.67;9.57;;;;;;;18.80;40.27;97593.63;4963888;28;20218;-86
2023/01/27 06:59:29;;;;;;;14.80;9.67;;;;;;;18.93;40.49;97603.53;4984931;28;20317;-85
2023/01/27 07:01:55;;;;;;;11.87;8.53;;;;;;;18.80;41.11;97593.63;4955185;28;20208;-86
2023/01/27 07:04:22;;;;;;;13.63;9.03;;;;;;;18.92;40.89;97611.09;4960114;28;20258;-85
2023/01/27 07:06:48;;;;;;;13.63;9.17;;;;;;;18.79;41.06;97591.03;4949365;28;20228;-85
2023/01/27 07:09:15;;;;;;;14.17;8.50;;;;;;;18.90;40.93;97612.72;4973089;28;20290;-86
2023/01/27 07:11:41;;;;;;;11.53;8.77;;;;;;;19.02;41.50;97638.69;4970964;28;20302;-85
2023/01/27 07:14:08;;;;;;;11.43;8.27;;;;;;;19.05;41.56;97647.31;4970016;28;20223;-86
2023/01/27 07:16:36;;;;;;;10.30;8.03;;;;;;;18.36;41.91;97521.31;4984403;28;20200;-85
2023/01/27 07:19:02;;;;;;;10.30;8.13;;;;;;;18.93;41.67;97623.03;4967315;28;20271;-86
2023/01/27 07:21:29;;;;;;;11.40;7.57;;;;;;;18.87;42.04;97607.50;4953602;28;20286;-86
2023/01/27 07:23:55;;;;;;;10.53;7.83;;;;;;;18.86;41.97;97605.78;4971278;28;20224;-85
2023/01/27 07:26:22;;;;;;;11.00;7.90;;;;;;;18.96;42.21;97641.84;4954737;28;20686;-85
2023/01/27 07:28:51;;;;;;;10.83;7.83;;;;;;;18.68;42.28;97588.03;4957042;28;20632;-85
2023/01/27 07:31:17;;;;;;;8.43;7.33;;;;;;;18.96;42.42;97633.34;4976167;28;20235;-85
2023/01/27 07:33:44;;;;;;;9.93;7.23;;;;;;;18.81;42.62;97599.59;4958593;28;20266;-85
2023/01/27 07:36:11;;;;;;;9.30;7.03;;;;;;;18.65;42.45;97575.19;4979229;28;20207;-86
2023/01/27 07:38:37;;;;;;;9.47;7.40;;;;;;;18.89;42.29;97614.38;4956704;28;20241;-85
2023/01/27 07:41:05;;;;;;;9.00;6.20;;;;;;;18.78;42.64;97587.63;4957879;28;20266;-86
2023/01/27 07:43:32;;;;;;;7.63;6.50;;;;;;;18.99;42.56;97623.28;4972989;28;20227;-86
2023/01/27 07:45:59;;;;;;;9.27;6.30;;;;;;;18.75;42.79;97581.53;4937040;28;20204;-85
2023/01/27 07:48:25;;;;;;;9.33;6.77;;;;;;;18.82;42.45;97596.25;4988023;28;20227;-85
2023/01/27 07:50:52;;;;;;;10.23;6.73;;;;;;;18.78;42.30;97581.66;4954040;28;20218;-85
2023/01/27 07:53:18;;;;;;;8.87;7.17;;;;;;;18.92;42.05;97619.59;4975534;28;20239;-85
2023/01/27 07:55:45;;;;;;;8.50;6.63;;;;;;;18.85;42.49;97598.91;4970027;28;20210;-85
2023/01/27 07:58:11;;;;;;;10.50;6.77;;;;;;;18.67;42.39;97567.63;4969369;28;20207;-84
2023/01/27 08:00:38;;;;;;;9.00;6.73;;;;;;;18.82;42.63;97599.66;4968224;28;20698;-85
2023/01/27 08:03:05;;;;;;;10.13;6.43;;;;;;;19.00;42.91;97628.44;4968921;28;20312;-86
2023/01/27 08:05:32;;;;;;;12.97;6.60;;;;;;;19.01;42.98;97624.22;4968344;28;20675;-86
2023/01/27 08:08:02;;;;;;;11.20;6.90;;;;;;;18.96;43.11;97607.88;4967329;28;20306;-86
2023/01/27 08:10:29;;;;;;;7.97;6.23;;;;;;;19.18;43.15;97641.03;4966621;28;20207;-86
2023/01/27 08:12:56;;;;;;;8.87;6.10;;;;;;;18.93;43.17;97597.56;4969482;28;20343;-85
2023/01/27 08:15:22;;;;;;;8.60;6.50;;;;;;;18.58;43.19;97540.13;4962946;28;20806;-85
2023/01/27 08:17:55;;;;;;;8.13;6.17;;;;;;;18.92;43.30;97589.03;4969421;28;20290;-85
2023/01/27 08:20:23;;;;;;;8.17;5.83;;;;;;;18.66;43.36;97554.03;4966321;28;20226;-85
2023/01/27 08:22:49;;;;;;;12.37;6.50;;;;;;;18.88;43.46;97581.22;4964836;28;20605;-85
2023/01/27 08:25:16;;;;;;;10.80;6.60;;;;;;;18.93;43.48;97583.16;4967849;28;20334;-85
2023/01/27 08:27:42;;;;;;;11.30;6.30;;;;;;;19.23;43.16;97645.53;4969128;28;20241;-86
2023/01/27 08:30:09;;;;;;;8.13;6.03;;;;;;;18.95;43.25;97593.41;4971485;28;20203;-85
2023/01/27 08:32:36;;;;;;;9.53;6.33;;;;;;;19.17;43.36;97640.19;4953641;28;20231;-85
2023/01/27 08:35:03;;;;;;;9.67;6.13;;;;;;;19.00;43.27;97608.06;4939844;28;20287;-85
2023/01/27 08:37:30;;;;;;;10.70;6.23;;;;;;;19.24;43.85;97654.91;4943319;28;20239;-85
2023/01/27 08:39:57;;;;;;;10.73;6.00;;;;;;;19.00;43.28;97608.06;4974992;28;20218;-85
2023/01/27 08:42:23;;;;;;;8.77;6.10;;;;;;;19.17;43.38;97642.72;4975026;28;20242;-86
2023/01/27 08:44:50;;;;;;;7.30;5.43;;;;;;;19.19;43.29;97652.97;4951803;28;20684;-86
2023/01/27 08:47:16;;;;;;;8.53;5.67;;;;;;;18.69;43.31;97576.19;4969568;28;20223;-86
2023/01/27 08:49:43;;;;;;;6.20;5.30;;;;;;;19.02;43.35;97637.00;4979724;28;20219;-85
2023/01/27 08:52:10;;;;;;;8.30;5.53;;;;;;;18.96;42.95;97620.59;4968010;28;20238;-85
2023/01/27 08:54:36;;;;;;;10.10;5.70;;;;;;;19.00;43.56;97625.00;4979716;28;20456;-85
2023/01/27 08:57:03;;;;;;;10.67;5.97;;;;;;;19.15;43.18;97656.19;4951459;28;20298;-85
2023/01/27 08:59:29;;;;;;;11.37;5.60;;;;;;;19.02;43.48;97638.69;4966490;28;20218;-85
2023/01/27 09:01:56;;;;;;;7.60;5.67;;;;;;;19.07;43.35;97643.16;4967083;28;20208;-85
2023/01/27 09:04:22;;;;;;;9.77;5.77;;;;;;;19.00;43.64;97636.06;4952347;28;20251;-85
2023/01/27 09:06:49;;;;;;;7.07;5.63;;;;;;;19.07;43.40;97655.88;4966018;28;20290;-85
2023/01/27 09:09:16;;;;;;;8.63;5.63;;;;;;;19.13;43.95;97668.88;4984356;28;20204;-85
2023/01/27 09:11:43;;;;;;;9.33;5.50;;;;;;;18.97;43.70;97647.81;4983911;28;20202;-85
2023/01/27 09:14:10;;;;;;;9.07;5.27;;;;;;;19.06;43.65;97666.00;4979381;28;20605;-85
2023/01/27 09:16:36;;;;;;;7.13;5.50;;;;;;;19.22;43.74;97692.16;4980073;28;20214;-85
2023/01/27 09:19:03;;;;;;;9.03;5.83;;;;;;;19.03;43.97;97668.44;4967203;28;20626;-85
2023/01/27 09:21:29;;;;;;;7.83;5.90;;;;;;;19.08;43.81;97672.94;4983736;28;20204;-85
2023/01/27 09:23:56;;;;;;;7.17;5.47;;;;;;;19.01;43.67;97657.31;4969000;28;20231;-85
2023/01/27 09:26:23;;;;;;;7.57;5.40;;;;;;;19.19;44.11;97691.19;4963724;28;20905;-85
2023/01/27 09:28:49;;;;;;;7.13;5.37;;;;;;;18.89;43.66;97639.84;4970305;28;20310;-84
2023/01/27 09:31:16;;;;;;;9.00;5.13;;;;;;;19.28;43.81;97707.78;4954748;28;20725;-85
2023/01/27 09:33:42;;;;;;;11.63;5.87;;;;;;;19.11;43.88;97679.81;4982410;28;20321;-85
2023/01/27 09:36:10;;;;;;;8.37;5.57;;;;;;;19.12;43.96;97684.97;4970175;28;20284;-85
2023/01/27 09:38:42;;;;;;;6.03;4.97;;;;;;;18.88;43.56;97637.22;4982877;28;20203;-85
2023/01/27 09:41:41;;;;;;;6.53;5.07;;;;;;;19.30;43.77;97715.47;4964032;28;20687;-85
2023/01/27 09:44:33;;;;;;;5.53;4.67;;;;;;;19.29;43.81;97706.06;4970654;28;20231;-85
2023/01/27 09:47:22;;;;;;;7.50;5.60;;;;;;;19.28;44.01;97704.34;4971150;28;20266;-85
2023/01/27 09:49:49;;;;;;;8.27;5.07;;;;;;;19.29;44.00;97708.63;4985690;28;20295;-85
2023/01/27 09:52:46;;;;;;;8.57;5.40;;;;;;;19.28;43.91;97710.31;4978129;28;20204;-85
2023/01/27 09:55:26;;;;;;;7.23;5.10;;;;;;;19.28;44.19;97712.88;4979452;28;20203;-85
2023/01/27 09:57:56;;;;;;;7.23;5.30;;;;;;;19.28;44.00;97707.78;4980698;28;20204;-85
2023/01/27 10:00:43;;;;;;;7.53;5.10;;;;;;;19.28;44.17;97712.00;4968132;28;20203;-85
2023/01/27 10:03:25;;;;;;;6.63;5.27;;;;;;;19.29;44.18;97708.63;4978661;28;20251;-85
2023/01/27 10:06:21;;;;;;;7.77;5.17;;;;;;;19.29;44.09;97708.63;4969532;28;20211;-85
2023/01/27 10:09:13;;;;;;;7.63;4.80;;;;;;;19.29;43.97;97722.25;4965008;28;20220;-85
2023/01/27 10:12:01;;;;;;;6.43;4.60;;;;;;;19.29;44.09;97708.63;4981315;28;20212;-85
2023/01/27 10:14:33;;;;;;;6.63;5.10;;;;;;;19.29;44.13;97706.06;4968211;28;20254;-85
2023/01/27 10:17:16;;;;;;;6.83;4.63;;;;;;;19.28;44.17;97705.22;4969277;28;20203;-85
2023/01/27 10:19:46;;;;;;;6.83;4.70;;;;;;;19.28;44.22;97720.50;4967454;28;20207;-85
2023/01/27 10:22:36;;;;;;;5.63;4.80;;;;;;;19.29;44.15;97713.72;4969912;28;20209;-85
2023/01/27 10:25:28;;;;;;;5.97;4.73;;;;;;;19.29;44.34;97714.59;4981699;28;20235;-85
2023/01/27 10:28:00;;;;;;;6.43;5.07;;;;;;;19.29;44.26;97712.06;4967721;28;20710;-85
2023/01/27 10:30:34;;;;;;;8.50;4.83;;;;;;;18.60;44.35;97597.06;4952155;28;20595;-85
2023/01/27 10:33:10;;;;;;;6.43;4.40;;;;;;;19.29;44.42;97717.16;4950755;28;20230;-85
2023/01/27 10:35:46;;;;;;;6.80;4.50;;;;;;;19.29;44.26;97719.69;4967002;28;20229;-85
2023/01/27 10:38:25;;;;;;;7.30;4.77;;;;;;;19.12;44.39;97682.41;4982013;28;20203;-85
2023/01/27 10:41:27;;;;;;;5.77;4.33;;;;;;;19.06;44.37;97677.06;4962860;28;20243;-84
2023/01/27 10:44:20;;;;;;;5.60;4.40;;;;;;;19.29;44.53;97723.91;4948585;28;20250;-84
2023/01/27 10:47:16;;;;;;;5.87;4.47;;;;;;;19.29;44.36;97729.88;4982215;28;20199;-85
2023/01/27 10:49:48;;;;;;;6.57;4.07;;;;;;;18.99;44.43;97671.66;4968566;28;20203;-85
2023/01/27 10:52:37;;;;;;;5.83;4.33;;;;;;;18.46;44.32;97575.25;4966121;28;20298;-85
2023/01/27 10:55:12;;;;;;;5.13;3.93;;;;;;;19.28;44.50;97712.88;4982411;28;20577;-85
2023/01/27 10:57:44;;;;;;;5.73;4.17;;;;;;;19.28;44.69;97717.09;4980200;28;20269;-85
2023/01/27 11:00:20;;;;;;;6.93;4.13;;;;;;;19.03;44.50;97681.16;4982874;28;20228;-85
2023/01/27 11:03:40;;;;;;;9.83;4.50;;;;;;;19.30;44.60;97725.69;4950422;28;20223;-85
2023/01/27 11:06:18;;;;;;;7.37;4.70;;;;;;;19.13;44.84;97688.41;4943345;28;20211;-85
2023/01/27 11:08:46;;;;;;;6.83;4.73;;;;;;;19.07;44.55;97683.06;4949730;28;20681;-85
2023/01/27 11:14:03;;;;;;;6.30;4.07;;;;;;;19.16;44.56;97691.06;4967469;28;20231;-85
2023/01/27 11:16:33;;;;;;;5.03;4.20;;;;;;;19.14;44.58;97696.09;4965622;28;20211;-85
2023/01/27 11:19:04;;;;;;;5.30;4.07;;;;;;;19.07;44.77;97668.63;4983957;28;20204;-85
2023/01/27 11:21:31;;;;;;;7.17;4.17;;;;;;;19.04;45.03;97665.94;4967203;28;20671;-85
2023/01/27 11:23:59;;;;;;;7.70;4.50;;;;;;;19.29;44.90;97706.06;4982924;28;20228;-86
2023/01/27 11:26:46;;;;;;;6.57;4.17;;;;;;;19.29;44.85;97708.63;4937105;28;20199;-86
2023/01/27 11:29:22;;;;;;;5.93;3.83;;;;;;;19.21;45.15;97692.09;4953030;28;20224;-85
2023/01/27 11:31:59;;;;;;;6.30;4.30;;;;;;;18.98;45.33;97660.59;4949529;28;20208;-86
2023/01/27 11:35:05;;;;;;;6.90;5.07;;;;;;;19.30;45.40;97715.47;4964844;28;20334;-86
2023/01/27 11:37:39;;;;;;;8.97;5.00;;;;;;;19.13;45.30;97686.69;4984142;28;20207;-86
2023/01/27 11:40:19;;;;;;;7.30;4.67;;;;;;;19.12;45.47;97679.88;4979457;28;20202;-86
2023/01/27 11:42:45;;;;;;;7.37;4.50;;;;;;;19.11;44.97;97679.81;4982905;28;20250;-86
2023/01/27 11:45:17;;;;;;;7.97;4.50;;;;;;;19.00;45.31;97660.66;4966347;28;20208;-86
2023/01/27 11:47:45;;;;;;;6.70;4.80;;;;;;;19.15;45.32;97690.19;4968131;28;20223;-86
2023/01/27 11:50:17;;;;;;;5.30;4.23;;;;;;;19.01;45.31;97658.19;4971903;28;20214;-86
2023/01/27 11:52:48;;;;;;;6.53;4.70;;;;;;;19.16;45.35;97685.97;4973830;28;20234;-86
2023/01/27 11:55:20;;;;;;;7.97;5.00;;;;;;;19.26;45.36;97695.72;4954488;28;20255;-85
2023/01/27 11:57:50;;;;;;;6.60;4.63;;;;;;;19.15;45.36;97677.44;4950567;28;20215;-85
2023/01/27 12:00:23;;;;;;;7.60;4.87;;;;;;;19.11;45.36;97673.06;4968755;28;21286;-86
2023/01/27 12:02:54;;;;;;;6.67;4.80;;;;;;;19.27;45.51;97702.63;4958262;28;20715;-85
2023/01/27 12:05:26;;;;;;;7.57;4.53;;;;;;;19.07;45.36;97655.03;4968821;28;20199;-85
2023/01/27 12:08:00;;;;;;;7.23;4.70;;;;;;;19.00;45.32;97640.28;4972615;28;20236;-85
2023/01/27 12:10:40;;;;;;;7.67;5.10;;;;;;;19.25;45.52;97688.91;4952127;28;20211;-85
2023/01/27 12:13:17;;;;;;;9.73;4.63;;;;;;;18.82;45.45;97603.88;4974757;28;20235;-86
2023/01/27 12:15:48;;;;;;;6.70;4.80;;;;;;;19.00;45.66;97628.44;4968481;28;20251;-85